Saturday, February 24, 2018, 9:56 AM GMT
Back to Local

CYZX, Greenwood, N. S.

Location: , , Canada Lat: 44.983
Local Time: 9:56 AM GMT ( 9:56 GMT) Lon: -64.917
Time Zone: GMT Elev: 91 ft

Show me the last for .
Show Decoded

2018-02-24 09:18 METAR CYZX 240918Z 26003KT 4SM BR FEW008 OVC012 01/M00 A2986 RMK SF2SC6 SLP112 =
2018-02-24 09:00 METAR CYZX 240900Z 24003KT 5SM -DZ BR OVC011 00/M01 A2987 RMK SC8 SLP116 =
2018-02-24 08:41 METAR CYZX 240841Z 21004KT 5SM -DZ BR OVC012 01/M00 A2988 RMK SC8 SLP119 =
2018-02-24 08:00 METAR CYZX 240800Z 25003KT 5SM -FZRA BR OVC011 M00/M01 A2990 RMK SC8 PRESFR
                 SLP128 =
2018-02-24 07:00 METAR CYZX 240700Z 00000KT 8SM -FZRA OVC013 M01/M02 A2996 RMK SC8 PRESFR SLP148
                 =
2018-02-24 06:27 METAR CYZX 240627Z 26005KT 15SM -FZRA OVC013 M00/M03 A3000 RMK SC8 PRESFR SLP162
                 =
2018-02-24 06:00 METAR CYZX 240600Z 23009KT 15SM BKN014 OVC026 M01/M02 A3004 RMK SC5SC3 SLP173 =
2018-02-24 05:29 METAR CYZX 240529Z 22006KT 15SM BKN014 OVC030 M01/M04 A3005 RMK SC5SC3 SLP179 =
2018-02-24 05:00 METAR CYZX 240500Z 22007KT 15SM OVC035 M01/M06 A3007 RMK SC8 PRESFR SLP185 =
2018-02-24 04:00 METAR CYZX 240400Z 20006KT 15SM -SN OVC045 M02/M08 A3015 RMK SC8 SLP212 =
2018-02-24 03:00 METAR CYZX 240300Z 19009G18KT 15SM -SN FEW035 OVC050 M01/M08 A3019 RMK SC2SC6
                 PRESFR SLP226 =
2018-02-24 02:40 METAR CYZX 240240Z 18009KT 15SM SCT035 OVC050 M01/M07 A3022 RMK SC3SC5 PRESFR
                 SLP237 =
2018-02-24 02:00 METAR CYZX 240200Z 19006KT 15SM BKN050 OVC080 M01/M08 A3029 RMK SC5AC3 SLP259 =
2018-02-24 01:00 METAR CYZX 240100Z 21003KT 15SM BKN095 M01/M09 A3033 RMK AC6 SLP272 =
2018-02-24 00:00 METAR CYZX 240000Z 00000KT 15SM BKN100 M01/M09 A3038 RMK AC6 SLP289 =
2018-02-23 23:00 METAR CYZX 232300Z 15003KT 15SM SCT100 BKN250 M01/M09 A3040 RMK AC4CI2 PRESFR
                 SLP296 =
2018-02-23 22:00 METAR CYZX 232200Z 25002KT 15SM SCT150 BKN250 M01/M08 A3046 RMK AC4CI3 SLP318 =
2018-02-23 21:00 METAR CYZX 232100Z 32002KT 15SM FEW160 OVC250 M01/M13 A3048 RMK AC2CI6 SLP324 =
2018-02-23 20:00 METAR CYZX 232000Z 27004KT 15SM OVC250 M01/M12 A3052 RMK CI8 SLP338 =
2018-02-23 19:00 METAR CYZX 231900Z 28005KT 15SM OVC250 M01/M10 A3057 RMK CI8 SLP355 =
2018-02-23 18:00 METAR CYZX 231800Z 00000KT 15SM BKN250 M01/M06 A3060 RMK CI6 SLP365 =
2018-02-23 17:00 METAR CYZX 231700Z 34002KT 15SM BKN250 M02/M08 A3065 RMK CI6 SLP380 =
2018-02-23 16:00 METAR CYZX 231600Z 03004KT 15SM BKN250 M02/M08 A3068 RMK CI6 SLP391 =
2018-02-23 15:00 METAR CYZX 231500Z 03004KT 15SM SCT250 M04/M13 A3071 RMK CI3 SLP401 =
2018-02-23 14:00 METAR CYZX 231400Z 33005KT 15SM FEW250 M05/M14 A3072 RMK CI2 SLP405 =
2018-02-23 13:00 METAR CYZX 231300Z 01007KT 15SM SKC M05/M12 A3073 RMK SLP409 =
2018-02-23 12:00 METAR CYZX 231200Z 36004KT 15SM SKC M06/M13 A3073 RMK SLP408 =
2018-02-23 11:00 METAR CYZX 231100Z 03004KT 15SM SKC M07/M13 A3071 RMK SLP402 =
2018-02-23 10:00 METAR CYZX 231000Z 02007KT 15SM SKC M07/M15 A3071 RMK SLP400 =

Support USWX by starting your Amazon purchase here.